sensor_id;sensor_type;location;lat;lon;timestamp;temperature;humidity
27314;DHT22;14800;48.174;9.798;2022-12-29T00:01:56;8.30;68.70
27314;DHT22;14800;48.174;9.798;2022-12-29T00:04:21;8.30;68.90
27314;DHT22;14800;48.174;9.798;2022-12-29T00:06:47;8.30;68.80
27314;DHT22;14800;48.174;9.798;2022-12-29T00:09:15;8.30;68.60
27314;DHT22;14800;48.174;9.798;2022-12-29T00:11:41;8.30;68.50
27314;DHT22;14800;48.174;9.798;2022-12-29T00:14:09;8.30;68.50
27314;DHT22;14800;48.174;9.798;2022-12-29T00:16:54;8.30;68.30
27314;DHT22;14800;48.174;9.798;2022-12-29T00:19:20;8.30;68.30
27314;DHT22;14800;48.174;9.798;2022-12-29T00:22:04;8.40;68.30
27314;DHT22;14800;48.174;9.798;2022-12-29T00:24:48;8.40;68.30
27314;DHT22;14800;48.174;9.798;2022-12-29T00:27:32;8.50;68.10
27314;DHT22;14800;48.174;9.798;2022-12-29T00:30:19;8.30;68.10
27314;DHT22;14800;48.174;9.798;2022-12-29T00:33:16;8.40;68.20
27314;DHT22;14800;48.174;9.798;2022-12-29T00:36:02;8.30;67.80
27314;DHT22;14800;48.174;9.798;2022-12-29T00:38:31;8.40;68.10
27314;DHT22;14800;48.174;9.798;2022-12-29T00:41:16;8.40;67.80
27314;DHT22;14800;48.174;9.798;2022-12-29T00:44:01;8.30;68.00
27314;DHT22;14800;48.174;9.798;2022-12-29T00:48:58;8.30;68.00
27314;DHT22;14800;48.174;9.798;2022-12-29T00:51:42;8.30;68.00
27314;DHT22;14800;48.174;9.798;2022-12-29T00:54:08;8.30;68.10
27314;DHT22;14800;48.174;9.798;2022-12-29T00:56:33;8.30;68.10
27314;DHT22;14800;48.174;9.798;2022-12-29T00:59:03;8.30;68.10
27314;DHT22;14800;48.174;9.798;2022-12-29T01:01:29;8.30;68.30
27314;DHT22;14800;48.174;9.798;2022-12-29T01:03:55;8.30;68.40
27314;DHT22;14800;48.174;9.798;2022-12-29T01:06:21;8.30;68.40
27314;DHT22;14800;48.174;9.798;2022-12-29T01:08:47;8.30;68.50
27314;DHT22;14800;48.174;9.798;2022-12-29T01:11:33;8.30;68.60
27314;DHT22;14800;48.174;9.798;2022-12-29T01:13:58;8.30;68.70
27314;DHT22;14800;48.174;9.798;2022-12-29T01:16:24;8.30;68.60
27314;DHT22;14800;48.174;9.798;2022-12-29T01:18:50;8.30;68.60
27314;DHT22;14800;48.174;9.798;2022-12-29T01:21:15;8.30;68.60
27314;DHT22;14800;48.174;9.798;2022-12-29T01:23:41;8.30;68.50
27314;DHT22;14800;48.174;9.798;2022-12-29T01:26:10;8.30;68.40
27314;DHT22;14800;48.174;9.798;2022-12-29T01:28:36;8.30;68.10
27314;DHT22;14800;48.174;9.798;2022-12-29T01:31:04;8.30;68.40
27314;DHT22;14800;48.174;9.798;2022-12-29T01:33:30;8.30;68.50
27314;DHT22;14800;48.174;9.798;2022-12-29T01:36:03;8.30;68.50
27314;DHT22;14800;48.174;9.798;2022-12-29T01:38:30;8.30;68.10
27314;DHT22;14800;48.174;9.798;2022-12-29T01:40:55;8.30;68.30
27314;DHT22;14800;48.174;9.798;2022-12-29T01:43:21;8.30;68.10
27314;DHT22;14800;48.174;9.798;2022-12-29T01:45:55;8.40;68.10
27314;DHT22;14800;48.174;9.798;2022-12-29T01:48:21;8.30;67.70
27314;DHT22;14800;48.174;9.798;2022-12-29T01:50:50;8.40;67.70
27314;DHT22;14800;48.174;9.798;2022-12-29T01:53:24;8.40;68.10
27314;DHT22;14800;48.174;9.798;2022-12-29T01:55:55;8.40;67.60
27314;DHT22;14800;48.174;9.798;2022-12-29T01:58:24;8.40;67.70
27314;DHT22;14800;48.174;9.798;2022-12-29T02:00:52;8.40;67.50
27314;DHT22;14800;48.174;9.798;2022-12-29T02:03:19;8.40;67.40
27314;DHT22;14800;48.174;9.798;2022-12-29T02:05:59;8.50;67.20
27314;DHT22;14800;48.174;9.798;2022-12-29T02:08:29;8.50;66.70
27314;DHT22;14800;48.174;9.798;2022-12-29T02:10:56;8.50;67.20
27314;DHT22;14800;48.174;9.798;2022-12-29T02:13:24;8.50;66.90
27314;DHT22;14800;48.174;9.798;2022-12-29T02:27:29;8.60;65.90
27314;DHT22;14800;48.174;9.798;2022-12-29T02:41:04;8.70;66.40
27314;DHT22;14800;48.174;9.798;2022-12-29T02:44:05;8.70;65.90
27314;DHT22;14800;48.174;9.798;2022-12-29T02:46:42;8.80;65.30
27314;DHT22;14800;48.174;9.798;2022-12-29T02:49:35;8.80;65.90
27314;DHT22;14800;48.174;9.798;2022-12-29T02:52:10;8.80;65.40
27314;DHT22;14800;48.174;9.798;2022-12-29T02:54:40;8.80;66.00
27314;DHT22;14800;48.174;9.798;2022-12-29T02:57:35;8.80;67.00
27314;DHT22;14800;48.174;9.798;2022-12-29T03:00:19;8.80;65.30
27314;DHT22;14800;48.174;9.798;2022-12-29T03:02:48;8.90;65.50
27314;DHT22;14800;48.174;9.798;2022-12-29T03:11:06;9.00;65.30
27314;DHT22;14800;48.174;9.798;2022-12-29T03:13:56;9.00;65.30
27314;DHT22;14800;48.174;9.798;2022-12-29T03:16:54;9.10;65.90
27314;DHT22;14800;48.174;9.798;2022-12-29T03:19:35;9.10;65.50
27314;DHT22;14800;48.174;9.798;2022-12-29T03:22:04;9.10;65.50
27314;DHT22;14800;48.174;9.798;2022-12-29T03:25:29;9.10;65.70
27314;DHT22;14800;48.174;9.798;2022-12-29T03:28:07;9.10;65.30
27314;DHT22;14800;48.174;9.798;2022-12-29T03:30:34;9.10;65.70
27314;DHT22;14800;48.174;9.798;2022-12-29T03:33:04;9.10;65.80
27314;DHT22;14800;48.174;9.798;2022-12-29T03:35:35;9.10;65.20
27314;DHT22;14800;48.174;9.798;2022-12-29T03:38:21;9.10;65.40
27314;DHT22;14800;48.174;9.798;2022-12-29T03:40:52;9.10;65.20
27314;DHT22;14800;48.174;9.798;2022-12-29T03:43:18;9.20;65.70
27314;DHT22;14800;48.174;9.798;2022-12-29T03:45:44;9.20;65.80
27314;DHT22;14800;48.174;9.798;2022-12-29T03:48:09;9.20;65.80
27314;DHT22;14800;48.174;9.798;2022-12-29T03:50:35;9.20;66.60
27314;DHT22;14800;48.174;9.798;2022-12-29T03:53:00;9.20;65.70
27314;DHT22;14800;48.174;9.798;2022-12-29T03:55:26;9.20;65.70
27314;DHT22;14800;48.174;9.798;2022-12-29T03:57:52;9.20;65.70
27314;DHT22;14800;48.174;9.798;2022-12-29T04:00:17;9.20;65.80
27314;DHT22;14800;48.174;9.798;2022-12-29T04:02:43;9.20;65.90
27314;DHT22;14800;48.174;9.798;2022-12-29T04:05:08;9.20;65.90
27314;DHT22;14800;48.174;9.798;2022-12-29T04:07:34;9.30;66.00
27314;DHT22;14800;48.174;9.798;2022-12-29T04:09:59;9.20;66.00
27314;DHT22;14800;48.174;9.798;2022-12-29T04:12:25;9.20;66.00
27314;DHT22;14800;48.174;9.798;2022-12-29T04:14:51;9.30;66.10
27314;DHT22;14800;48.174;9.798;2022-12-29T04:17:16;9.20;65.90
27314;DHT22;14800;48.174;9.798;2022-12-29T04:19:42;9.20;66.00
27314;DHT22;14800;48.174;9.798;2022-12-29T04:22:07;9.20;66.00
27314;DHT22;14800;48.174;9.798;2022-12-29T04:24:33;9.20;66.10
27314;DHT22;14800;48.174;9.798;2022-12-29T04:26:58;9.20;66.00
27314;DHT22;14800;48.174;9.798;2022-12-29T04:29:24;9.20;66.10
27314;DHT22;14800;48.174;9.798;2022-12-29T04:31:50;9.20;66.40
27314;DHT22;14800;48.174;9.798;2022-12-29T04:34:15;9.20;66.30
27314;DHT22;14800;48.174;9.798;2022-12-29T04:36:41;9.20;66.30
27314;DHT22;14800;48.174;9.798;2022-12-29T04:39:07;9.20;66.30
27314;DHT22;14800;48.174;9.798;2022-12-29T04:41:32;9.10;66.30
27314;DHT22;14800;48.174;9.798;2022-12-29T04:43:58;9.10;66.40
27314;DHT22;14800;48.174;9.798;2022-12-29T04:46:24;9.10;66.40
27314;DHT22;14800;48.174;9.798;2022-12-29T04:48:49;9.20;66.60
27314;DHT22;14800;48.174;9.798;2022-12-29T04:51:15;9.20;66.50
27314;DHT22;14800;48.174;9.798;2022-12-29T04:53:41;9.10;66.50
27314;DHT22;14800;48.174;9.798;2022-12-29T04:56:06;9.10;66.50
27314;DHT22;14800;48.174;9.798;2022-12-29T04:58:32;9.10;66.60
27314;DHT22;14800;48.174;9.798;2022-12-29T05:00:58;9.10;66.70
27314;DHT22;14800;48.174;9.798;2022-12-29T05:03:23;9.10;66.90
27314;DHT22;14800;48.174;9.798;2022-12-29T05:05:49;9.10;67.00
27314;DHT22;14800;48.174;9.798;2022-12-29T05:08:14;9.10;67.10
27314;DHT22;14800;48.174;9.798;2022-12-29T05:10:44;9.10;67.20
27314;DHT22;14800;48.174;9.798;2022-12-29T05:13:10;9.00;67.10
27314;DHT22;14800;48.174;9.798;2022-12-29T05:15:36;9.10;67.40
27314;DHT22;14800;48.174;9.798;2022-12-29T05:18:01;9.10;67.60
27314;DHT22;14800;48.174;9.798;2022-12-29T05:20:27;9.10;67.60
27314;DHT22;14800;48.174;9.798;2022-12-29T05:22:52;9.00;67.60
27314;DHT22;14800;48.174;9.798;2022-12-29T05:25:21;9.00;67.80
27314;DHT22;14800;48.174;9.798;2022-12-29T05:27:47;9.00;67.90
27314;DHT22;14800;48.174;9.798;2022-12-29T05:30:12;9.00;68.10
27314;DHT22;14800;48.174;9.798;2022-12-29T05:32:38;9.00;68.20
27314;DHT22;14800;48.174;9.798;2022-12-29T05:35:04;8.90;68.30
27314;DHT22;14800;48.174;9.798;2022-12-29T05:37:32;8.90;68.30
27314;DHT22;14800;48.174;9.798;2022-12-29T05:39:58;8.90;68.40
27314;DHT22;14800;48.174;9.798;2022-12-29T05:42:24;9.00;68.60
27314;DHT22;14800;48.174;9.798;2022-12-29T05:44:50;9.00;68.60
27314;DHT22;14800;48.174;9.798;2022-12-29T05:47:19;9.00;68.60
27314;DHT22;14800;48.174;9.798;2022-12-29T05:49:44;9.00;68.70
27314;DHT22;14800;48.174;9.798;2022-12-29T05:52:10;9.00;68.80
27314;DHT22;14800;48.174;9.798;2022-12-29T05:54:36;9.00;68.80
27314;DHT22;14800;48.174;9.798;2022-12-29T05:57:01;9.00;68.80
27314;DHT22;14800;48.174;9.798;2022-12-29T05:59:27;9.00;68.80
27314;DHT22;14800;48.174;9.798;2022-12-29T06:01:53;9.00;68.90
27314;DHT22;14800;48.174;9.798;2022-12-29T06:04:21;9.00;68.90
27314;DHT22;14800;48.174;9.798;2022-12-29T06:06:47;9.00;69.90
27314;DHT22;14800;48.174;9.798;2022-12-29T06:09:12;9.00;69.00
27314;DHT22;14800;48.174;9.798;2022-12-29T06:11:38;9.00;69.00
27314;DHT22;14800;48.174;9.798;2022-12-29T06:14:04;9.00;69.10
27314;DHT22;14800;48.174;9.798;2022-12-29T06:16:29;8.90;69.00
27314;DHT22;14800;48.174;9.798;2022-12-29T06:18:55;8.90;69.10
27314;DHT22;14800;48.174;9.798;2022-12-29T06:21:20;8.90;69.20
27314;DHT22;14800;48.174;9.798;2022-12-29T06:23:46;8.80;69.30
27314;DHT22;14800;48.174;9.798;2022-12-29T06:26:11;8.80;69.40
27314;DHT22;14800;48.174;9.798;2022-12-29T06:28:37;8.70;69.50
27314;DHT22;14800;48.174;9.798;2022-12-29T06:31:03;8.70;69.70
27314;DHT22;14800;48.174;9.798;2022-12-29T06:33:29;8.70;69.90
27314;DHT22;14800;48.174;9.798;2022-12-29T06:35:54;8.60;70.00
27314;DHT22;14800;48.174;9.798;2022-12-29T06:38:20;8.60;70.40
27314;DHT22;14800;48.174;9.798;2022-12-29T06:40:45;8.50;70.60
27314;DHT22;14800;48.174;9.798;2022-12-29T06:43:11;8.60;71.10
27314;DHT22;14800;48.174;9.798;2022-12-29T06:45:40;8.60;71.70
27314;DHT22;14800;48.174;9.798;2022-12-29T06:48:06;8.60;71.60
27314;DHT22;14800;48.174;9.798;2022-12-29T06:50:32;8.60;71.80
27314;DHT22;14800;48.174;9.798;2022-12-29T06:52:57;8.60;71.90
27314;DHT22;14800;48.174;9.798;2022-12-29T06:55:23;8.60;72.00
27314;DHT22;14800;48.174;9.798;2022-12-29T06:57:49;8.70;72.10
27314;DHT22;14800;48.174;9.798;2022-12-29T07:00:14;8.70;72.10
27314;DHT22;14800;48.174;9.798;2022-12-29T07:02:40;8.80;72.10
27314;DHT22;14800;48.174;9.798;2022-12-29T07:05:06;8.80;72.10
27314;DHT22;14800;48.174;9.798;2022-12-29T07:07:34;8.80;72.00
27314;DHT22;14800;48.174;9.798;2022-12-29T07:09:59;8.90;72.00
27314;DHT22;14800;48.174;9.798;2022-12-29T07:12:25;9.00;72.00
27314;DHT22;14800;48.174;9.798;2022-12-29T07:14:51;9.00;71.90
27314;DHT22;14800;48.174;9.798;2022-12-29T07:17:19;9.00;71.80
27314;DHT22;14800;48.174;9.798;2022-12-29T07:19:45;9.10;71.80
27314;DHT22;14800;48.174;9.798;2022-12-29T07:22:10;9.10;71.60
27314;DHT22;14800;48.174;9.798;2022-12-29T07:24:36;9.10;71.60
27314;DHT22;14800;48.174;9.798;2022-12-29T07:27:01;9.10;71.50
27314;DHT22;14800;48.174;9.798;2022-12-29T07:29:27;9.10;71.40
27314;DHT22;14800;48.174;9.798;2022-12-29T07:31:53;9.10;71.30
27314;DHT22;14800;48.174;9.798;2022-12-29T07:34:18;9.10;71.30
27314;DHT22;14800;48.174;9.798;2022-12-29T07:36:44;9.10;71.30
27314;DHT22;14800;48.174;9.798;2022-12-29T07:39:09;9.10;71.40
27314;DHT22;14800;48.174;9.798;2022-12-29T07:41:35;9.10;71.40
27314;DHT22;14800;48.174;9.798;2022-12-29T07:44:00;9.00;71.30
27314;DHT22;14800;48.174;9.798;2022-12-29T07:46:26;9.10;71.30
27314;DHT22;14800;48.174;9.798;2022-12-29T07:48:52;9.00;71.30
27314;DHT22;14800;48.174;9.798;2022-12-29T07:51:21;9.00;71.40
27314;DHT22;14800;48.174;9.798;2022-12-29T07:53:46;9.00;71.40
27314;DHT22;14800;48.174;9.798;2022-12-29T07:56:12;9.00;71.30
27314;DHT22;14800;48.174;9.798;2022-12-29T07:58:37;9.10;71.40
27314;DHT22;14800;48.174;9.798;2022-12-29T08:01:03;9.10;71.40
27314;DHT22;14800;48.174;9.798;2022-12-29T08:03:29;9.10;71.40
27314;DHT22;14800;48.174;9.798;2022-12-29T08:05:54;9.20;71.40
27314;DHT22;14800;48.174;9.798;2022-12-29T08:08:21;9.20;71.40
27314;DHT22;14800;48.174;9.798;2022-12-29T08:10:47;9.20;71.30
27314;DHT22;14800;48.174;9.798;2022-12-29T08:13:12;9.20;71.20
27314;DHT22;14800;48.174;9.798;2022-12-29T08:15:38;9.30;71.30
27314;DHT22;14800;48.174;9.798;2022-12-29T08:18:04;9.30;71.20
27314;DHT22;14800;48.174;9.798;2022-12-29T08:20:30;9.40;71.20
27314;DHT22;14800;48.174;9.798;2022-12-29T08:22:56;9.40;71.10
27314;DHT22;14800;48.174;9.798;2022-12-29T08:25:21;9.40;71.20
27314;DHT22;14800;48.174;9.798;2022-12-29T08:27:47;9.40;71.10
27314;DHT22;14800;48.174;9.798;2022-12-29T08:30:13;9.50;71.30
27314;DHT22;14800;48.174;9.798;2022-12-29T08:32:38;9.50;71.20
27314;DHT22;14800;48.174;9.798;2022-12-29T08:35:04;9.50;71.20
27314;DHT22;14800;48.174;9.798;2022-12-29T08:37:31;9.60;72.10
27314;DHT22;14800;48.174;9.798;2022-12-29T08:39:57;9.60;71.20
27314;DHT22;14800;48.174;9.798;2022-12-29T08:42:23;9.60;71.20
27314;DHT22;14800;48.174;9.798;2022-12-29T08:44:54;9.70;71.30
27314;DHT22;14800;48.174;9.798;2022-12-29T08:47:19;9.80;71.20
27314;DHT22;14800;48.174;9.798;2022-12-29T08:49:45;9.80;70.40
27314;DHT22;14800;48.174;9.798;2022-12-29T08:52:10;9.90;71.10
27314;DHT22;14800;48.174;9.798;2022-12-29T08:54:36;9.90;71.10
27314;DHT22;14800;48.174;9.798;2022-12-29T08:57:01;9.90;71.10
27314;DHT22;14800;48.174;9.798;2022-12-29T08:59:27;10.00;71.10
27314;DHT22;14800;48.174;9.798;2022-12-29T09:01:54;10.00;71.00
27314;DHT22;14800;48.174;9.798;2022-12-29T09:04:20;10.10;71.10
27314;DHT22;14800;48.174;9.798;2022-12-29T09:06:46;10.20;71.20
27314;DHT22;14800;48.174;9.798;2022-12-29T09:09:12;10.20;71.20
27314;DHT22;14800;48.174;9.798;2022-12-29T09:11:37;10.20;71.30
27314;DHT22;14800;48.174;9.798;2022-12-29T09:14:04;10.20;71.10
27314;DHT22;14800;48.174;9.798;2022-12-29T09:16:29;10.30;71.10
27314;DHT22;14800;48.174;9.798;2022-12-29T09:18:55;10.30;71.00
27314;DHT22;14800;48.174;9.798;2022-12-29T09:21:20;10.40;70.90
27314;DHT22;14800;48.174;9.798;2022-12-29T09:23:47;10.40;70.70
27314;DHT22;14800;48.174;9.798;2022-12-29T09:26:13;10.50;70.70
27314;DHT22;14800;48.174;9.798;2022-12-29T09:28:39;10.50;70.70
27314;DHT22;14800;48.174;9.798;2022-12-29T09:31:05;10.50;70.60
27314;DHT22;14800;48.174;9.798;2022-12-29T09:33:31;10.50;70.40
27314;DHT22;14800;48.174;9.798;2022-12-29T09:35:58;10.60;70.50
27314;DHT22;14800;48.174;9.798;2022-12-29T09:38:25;10.60;70.40
27314;DHT22;14800;48.174;9.798;2022-12-29T09:40:54;10.60;70.00
27314;DHT22;14800;48.174;9.798;2022-12-29T09:51:32;10.90;69.60
27314;DHT22;14800;48.174;9.798;2022-12-29T09:54:34;11.00;69.50
27314;DHT22;14800;48.174;9.798;2022-12-29T09:57:11;11.10;68.70
27314;DHT22;14800;48.174;9.798;2022-12-29T09:59:41;11.10;68.80
27314;DHT22;14800;48.174;9.798;2022-12-29T10:02:29;11.20;68.50
27314;DHT22;14800;48.174;9.798;2022-12-29T10:04:56;11.20;68.10
27314;DHT22;14800;48.174;9.798;2022-12-29T10:07:44;11.30;68.40
27314;DHT22;14800;48.174;9.798;2022-12-29T10:10:29;11.30;67.60
27314;DHT22;14800;48.174;9.798;2022-12-29T10:24:12;11.60;67.40
27314;DHT22;14800;48.174;9.798;2022-12-29T10:26:44;11.70;67.70
27314;DHT22;14800;48.174;9.798;2022-12-29T10:29:15;11.80;67.60
27314;DHT22;14800;48.174;9.798;2022-12-29T10:31:46;11.80;67.50
27314;DHT22;14800;48.174;9.798;2022-12-29T10:34:47;11.80;67.40
27314;DHT22;14800;48.174;9.798;2022-12-29T10:39:52;12.00;67.20
27314;DHT22;14800;48.174;9.798;2022-12-29T10:42:28;12.10;67.40
27314;DHT22;14800;48.174;9.798;2022-12-29T10:44:55;12.10;67.40
27314;DHT22;14800;48.174;9.798;2022-12-29T10:47:28;12.10;67.10
27314;DHT22;14800;48.174;9.798;2022-12-29T10:49:55;12.20;66.40
27314;DHT22;14800;48.174;9.798;2022-12-29T10:52:24;12.20;66.40
27314;DHT22;14800;48.174;9.798;2022-12-29T10:55:00;12.20;66.20
27314;DHT22;14800;48.174;9.798;2022-12-29T10:57:38;12.30;67.30
27314;DHT22;14800;48.174;9.798;2022-12-29T11:00:14;12.30;66.20
27314;DHT22;14800;48.174;9.798;2022-12-29T11:08:17;12.30;66.60
27314;DHT22;14800;48.174;9.798;2022-12-29T11:10:45;12.40;66.30
27314;DHT22;14800;48.174;9.798;2022-12-29T11:13:13;12.40;66.60
27314;DHT22;14800;48.174;9.798;2022-12-29T11:15:48;12.40;66.40
27314;DHT22;14800;48.174;9.798;2022-12-29T11:18:43;12.40;66.20
27314;DHT22;14800;48.174;9.798;2022-12-29T11:21:34;12.50;66.00
27314;DHT22;14800;48.174;9.798;2022-12-29T11:24:17;12.50;65.90
27314;DHT22;14800;48.174;9.798;2022-12-29T11:26:44;12.50;66.30
27314;DHT22;14800;48.174;9.798;2022-12-29T11:31:45;12.50;65.80
27314;DHT22;14800;48.174;9.798;2022-12-29T11:34:41;12.50;66.00
27314;DHT22;14800;48.174;9.798;2022-12-29T11:37:12;12.50;65.60
27314;DHT22;14800;48.174;9.798;2022-12-29T11:42:55;12.60;65.70
27314;DHT22;14800;48.174;9.798;2022-12-29T11:45:24;12.60;65.70
27314;DHT22;14800;48.174;9.798;2022-12-29T11:47:56;12.60;66.20
27314;DHT22;14800;48.174;9.798;2022-12-29T11:50:31;12.60;66.00
27314;DHT22;14800;48.174;9.798;2022-12-29T11:53:08;12.60;66.00
27314;DHT22;14800;48.174;9.798;2022-12-29T11:55:39;12.60;66.10
27314;DHT22;14800;48.174;9.798;2022-12-29T11:58:05;12.60;66.20
27314;DHT22;14800;48.174;9.798;2022-12-29T12:00:34;12.70;66.30
27314;DHT22;14800;48.174;9.798;2022-12-29T12:03:28;12.70;66.00
27314;DHT22;14800;48.174;9.798;2022-12-29T12:05:56;12.70;65.70
27314;DHT22;14800;48.174;9.798;2022-12-29T12:16:43;12.80;65.70
27314;DHT22;14800;48.174;9.798;2022-12-29T12:21:40;12.80;65.90
27314;DHT22;14800;48.174;9.798;2022-12-29T12:24:34;12.80;66.00
27314;DHT22;14800;48.174;9.798;2022-12-29T12:34:51;12.90;66.00
27314;DHT22;14800;48.174;9.798;2022-12-29T12:54:29;12.90;66.10
27314;DHT22;14800;48.174;9.798;2022-12-29T13:00:14;12.90;65.80
27314;DHT22;14800;48.174;9.798;2022-12-29T13:03:04;12.90;66.00
27314;DHT22;14800;48.174;9.798;2022-12-29T13:22:08;12.90;65.90
27314;DHT22;14800;48.174;9.798;2022-12-29T13:25:27;13.00;65.90
27314;DHT22;14800;48.174;9.798;2022-12-29T13:30:18;12.90;66.00
27314;DHT22;14800;48.174;9.798;2022-12-29T13:41:10;13.00;65.90
27314;DHT22;14800;48.174;9.798;2022-12-29T13:43:42;13.00;65.90
27314;DHT22;14800;48.174;9.798;2022-12-29T13:46:35;13.00;66.20
27314;DHT22;14800;48.174;9.798;2022-12-29T13:49:29;13.00;66.10
27314;DHT22;14800;48.174;9.798;2022-12-29T13:52:02;13.00;66.10
27314;DHT22;14800;48.174;9.798;2022-12-29T13:54:44;13.00;66.50
27314;DHT22;14800;48.174;9.798;2022-12-29T13:57:31;13.00;66.20
27314;DHT22;14800;48.174;9.798;2022-12-29T14:00:26;13.00;66.60
27314;DHT22;14800;48.174;9.798;2022-12-29T14:03:27;13.00;66.40
27314;DHT22;14800;48.174;9.798;2022-12-29T14:06:27;13.00;66.20
27314;DHT22;14800;48.174;9.798;2022-12-29T14:09:02;13.00;66.10
27314;DHT22;14800;48.174;9.798;2022-12-29T14:11:36;13.00;66.30
27314;DHT22;14800;48.174;9.798;2022-12-29T14:14:34;13.10;66.40
27314;DHT22;14800;48.174;9.798;2022-12-29T14:17:10;13.00;66.10
27314;DHT22;14800;48.174;9.798;2022-12-29T14:19:39;13.00;66.40
27314;DHT22;14800;48.174;9.798;2022-12-29T14:22:07;13.00;66.40
27314;DHT22;14800;48.174;9.798;2022-12-29T14:34:50;13.10;66.30
27314;DHT22;14800;48.174;9.798;2022-12-29T14:37:27;13.00;66.70
27314;DHT22;14800;48.174;9.798;2022-12-29T14:42:40;13.00;66.40
27314;DHT22;14800;48.174;9.798;2022-12-29T14:47:43;13.00;66.70
27314;DHT22;14800;48.174;9.798;2022-12-29T14:52:57;13.00;66.70
27314;DHT22;14800;48.174;9.798;2022-12-29T14:55:53;13.00;66.90
27314;DHT22;14800;48.174;9.798;2022-12-29T14:58:31;13.00;66.70
27314;DHT22;14800;48.174;9.798;2022-12-29T15:00:59;13.00;66.80
27314;DHT22;14800;48.174;9.798;2022-12-29T15:03:45;13.00;66.90
27314;DHT22;14800;48.174;9.798;2022-12-29T15:06:13;13.00;66.80
27314;DHT22;14800;48.174;9.798;2022-12-29T15:08:54;13.00;67.00
27314;DHT22;14800;48.174;9.798;2022-12-29T15:11:47;13.00;66.90
27314;DHT22;14800;48.174;9.798;2022-12-29T15:14:47;12.90;66.90
27314;DHT22;14800;48.174;9.798;2022-12-29T15:17:31;12.90;66.90
27314;DHT22;14800;48.174;9.798;2022-12-29T15:20:00;12.90;67.00
27314;DHT22;14800;48.174;9.798;2022-12-29T15:22:26;12.90;67.20
27314;DHT22;14800;48.174;9.798;2022-12-29T15:24:54;12.90;67.30
27314;DHT22;14800;48.174;9.798;2022-12-29T15:27:22;12.80;67.20
27314;DHT22;14800;48.174;9.798;2022-12-29T15:30:03;12.90;67.40
27314;DHT22;14800;48.174;9.798;2022-12-29T15:32:40;12.80;68.10
27314;DHT22;14800;48.174;9.798;2022-12-29T15:35:28;12.80;67.20
27314;DHT22;14800;48.174;9.798;2022-12-29T15:37:54;12.80;67.30
27314;DHT22;14800;48.174;9.798;2022-12-29T15:40:31;12.80;67.40
27314;DHT22;14800;48.174;9.798;2022-12-29T15:45:41;12.70;67.40
27314;DHT22;14800;48.174;9.798;2022-12-29T15:48:15;12.70;67.40
27314;DHT22;14800;48.174;9.798;2022-12-29T15:50:42;12.70;67.30
27314;DHT22;14800;48.174;9.798;2022-12-29T15:53:16;12.70;67.40
27314;DHT22;14800;48.174;9.798;2022-12-29T15:55:43;12.70;67.40
27314;DHT22;14800;48.174;9.798;2022-12-29T16:01:03;12.60;67.50
27314;DHT22;14800;48.174;9.798;2022-12-29T16:03:35;12.60;67.60
27314;DHT22;14800;48.174;9.798;2022-12-29T16:06:21;12.50;67.60
27314;DHT22;14800;48.174;9.798;2022-12-29T16:08:56;12.50;67.50
27314;DHT22;14800;48.174;9.798;2022-12-29T16:11:31;12.50;67.60
27314;DHT22;14800;48.174;9.798;2022-12-29T16:13:58;12.40;67.60
27314;DHT22;14800;48.174;9.798;2022-12-29T16:16:39;12.40;67.70
27314;DHT22;14800;48.174;9.798;2022-12-29T16:19:28;12.40;67.70
27314;DHT22;14800;48.174;9.798;2022-12-29T16:21:54;12.40;67.80
27314;DHT22;14800;48.174;9.798;2022-12-29T16:24:24;12.30;67.80
27314;DHT22;14800;48.174;9.798;2022-12-29T16:27:07;12.30;67.90
27314;DHT22;14800;48.174;9.798;2022-12-29T16:29:35;12.30;68.00
27314;DHT22;14800;48.174;9.798;2022-12-29T16:32:02;12.20;68.00
27314;DHT22;14800;48.174;9.798;2022-12-29T16:34:33;12.20;68.10
27314;DHT22;14800;48.174;9.798;2022-12-29T16:39:44;12.20;68.20
27314;DHT22;14800;48.174;9.798;2022-12-29T16:47:45;12.10;68.30
27314;DHT22;14800;48.174;9.798;2022-12-29T16:50:16;12.10;68.50
27314;DHT22;14800;48.174;9.798;2022-12-29T16:52:42;12.10;68.60
27314;DHT22;14800;48.174;9.798;2022-12-29T16:55:16;12.00;68.60
27314;DHT22;14800;48.174;9.798;2022-12-29T16:57:43;12.00;68.70
27314;DHT22;14800;48.174;9.798;2022-12-29T17:00:20;12.00;68.80
27314;DHT22;14800;48.174;9.798;2022-12-29T17:02:46;11.90;68.80
27314;DHT22;14800;48.174;9.798;2022-12-29T17:05:17;11.90;68.90
27314;DHT22;14800;48.174;9.798;2022-12-29T17:07:43;11.90;69.20
27314;DHT22;14800;48.174;9.798;2022-12-29T17:10:09;11.90;69.20
27314;DHT22;14800;48.174;9.798;2022-12-29T17:12:35;11.90;69.30
27314;DHT22;14800;48.174;9.798;2022-12-29T17:15:24;11.80;69.30
27314;DHT22;14800;48.174;9.798;2022-12-29T17:17:52;11.80;69.30
27314;DHT22;14800;48.174;9.798;2022-12-29T17:22:50;11.80;69.50
27314;DHT22;14800;48.174;9.798;2022-12-29T17:25:20;11.90;69.50
27314;DHT22;14800;48.174;9.798;2022-12-29T17:27:55;11.80;69.50
27314;DHT22;14800;48.174;9.798;2022-12-29T17:30:23;11.80;69.70
27314;DHT22;14800;48.174;9.798;2022-12-29T17:32:55;11.80;69.70
27314;DHT22;14800;48.174;9.798;2022-12-29T17:35:22;11.80;69.70
27314;DHT22;14800;48.174;9.798;2022-12-29T17:37:48;11.80;69.70
27314;DHT22;14800;48.174;9.798;2022-12-29T17:40:19;11.80;69.80
27314;DHT22;14800;48.174;9.798;2022-12-29T17:42:47;11.80;70.00
27314;DHT22;14800;48.174;9.798;2022-12-29T17:45:15;11.80;70.00
27314;DHT22;14800;48.174;9.798;2022-12-29T17:47:41;11.80;70.20
27314;DHT22;14800;48.174;9.798;2022-12-29T17:50:16;11.80;70.30
27314;DHT22;14800;48.174;9.798;2022-12-29T17:52:43;11.70;70.40
27314;DHT22;14800;48.174;9.798;2022-12-29T17:55:18;11.70;70.30
27314;DHT22;14800;48.174;9.798;2022-12-29T17:57:44;11.80;71.50
27314;DHT22;14800;48.174;9.798;2022-12-29T18:00:27;11.80;70.70
27314;DHT22;14800;48.174;9.798;2022-12-29T18:02:53;11.80;70.60
27314;DHT22;14800;48.174;9.798;2022-12-29T18:05:29;11.80;70.50
27314;DHT22;14800;48.174;9.798;2022-12-29T18:07:57;11.80;70.60
27314;DHT22;14800;48.174;9.798;2022-12-29T18:10:25;11.70;70.60
27314;DHT22;14800;48.174;9.798;2022-12-29T18:12:53;11.70;70.70
27314;DHT22;14800;48.174;9.798;2022-12-29T18:20:23;11.70;71.10
27314;DHT22;14800;48.174;9.798;2022-12-29T18:22:49;11.70;71.10
27314;DHT22;14800;48.174;9.798;2022-12-29T18:25:22;11.70;70.80
27314;DHT22;14800;48.174;9.798;2022-12-29T18:27:49;11.70;71.00
27314;DHT22;14800;48.174;9.798;2022-12-29T18:30:16;11.70;71.10
27314;DHT22;14800;48.174;9.798;2022-12-29T18:32:44;11.70;71.30
27314;DHT22;14800;48.174;9.798;2022-12-29T18:35:16;11.70;71.30
27314;DHT22;14800;48.174;9.798;2022-12-29T18:37:43;11.70;71.60
27314;DHT22;14800;48.174;9.798;2022-12-29T18:40:11;11.70;71.50
27314;DHT22;14800;48.174;9.798;2022-12-29T18:42:37;11.70;71.80
27314;DHT22;14800;48.174;9.798;2022-12-29T18:45:13;11.70;71.80
27314;DHT22;14800;48.174;9.798;2022-12-29T18:47:39;11.70;72.10
27314;DHT22;14800;48.174;9.798;2022-12-29T18:50:05;11.70;72.10
27314;DHT22;14800;48.174;9.798;2022-12-29T18:52:31;11.70;72.10
27314;DHT22;14800;48.174;9.798;2022-12-29T18:54:56;11.70;72.30